Time;durP1;ratioP1;P1;durP2;ratioP2;P2;SDS_P1;SDS_P2;PMS_P1;PMS_P2;Temp;Humidity;BMP_temperature;BMP_pressure;BME280_temperature;BME280_humidity;BME280_pressure;Samples;Min_cycle;Max_cycle;Signal;HPM_P1;HPM_P2
2022/03/20 00:01:40;;;;;;;24.23;14.93;;;4.40;1.00;;;;;;7358820;19;20018;-60
2022/03/20 00:04:10;;;;;;;24.42;14.90;;;4.30;1.00;;;;;;7378918;19;20790;-60
2022/03/20 00:06:40;;;;;;;27.95;15.32;;;4.30;1.00;;;;;;7362321;19;20022;-61
2022/03/20 00:09:13;;;;;;;25.13;14.85;;;4.30;1.00;;;;;;7363195;19;20014;-61
2022/03/20 00:11:42;;;;;;;24.98;16.13;;;4.30;1.00;;;;;;7359548;19;20007;-61
2022/03/20 00:14:12;;;;;;;24.98;15.13;;;4.20;1.00;;;;;;7357667;19;20015;-61
2022/03/20 00:16:42;;;;;;;26.02;15.55;;;4.20;1.00;;;;;;7361923;19;20019;-60
2022/03/20 00:19:12;;;;;;;20.92;14.88;;;4.20;1.00;;;;;;7384474;19;20051;-60
2022/03/20 00:21:42;;;;;;;21.38;14.68;;;4.30;1.00;;;;;;7358025;19;20486;-61
2022/03/20 00:24:15;;;;;;;31.02;15.80;;;4.30;1.00;;;;;;7356403;19;20002;-61
2022/03/20 00:26:45;;;;;;;23.13;14.13;;;4.30;1.00;;;;;;7363201;19;20441;-60
2022/03/20 00:29:17;;;;;;;24.92;15.02;;;4.30;1.00;;;;;;7363200;19;20003;-60
2022/03/20 00:31:47;;;;;;;26.10;15.73;;;4.20;1.00;;;;;;7358739;19;20021;-61
2022/03/20 00:34:17;;;;;;;25.73;15.30;;;4.20;1.00;;;;;;7378764;19;20018;-61
2022/03/20 00:36:47;;;;;;;24.55;15.73;;;4.10;1.00;;;;;;7362513;19;20082;-60
2022/03/20 00:39:32;;;;;;;23.38;14.70;;;4.00;1.00;;;;;;7361957;19;20387;-61
2022/03/20 00:42:02;;;;;;;28.20;16.42;;;4.10;1.00;;;;;;7359290;19;20077;-61
2022/03/20 00:44:37;;;;;;;24.30;15.82;;;3.90;1.00;;;;;;7357892;19;20010;-61
2022/03/20 00:47:14;;;;;;;25.05;16.05;;;4.00;1.00;;;;;;7360831;19;20791;-60
2022/03/20 00:49:44;;;;;;;24.17;14.77;;;4.00;1.00;;;;;;7362615;19;20015;-61
2022/03/20 00:52:14;;;;;;;24.45;15.23;;;4.00;1.00;;;;;;7380019;19;20073;-61
2022/03/20 00:54:46;;;;;;;24.45;14.48;;;4.10;1.00;;;;;;7357895;19;20414;-60
2022/03/20 00:57:16;;;;;;;25.67;15.88;;;4.10;1.00;;;;;;7361548;19;20422;-60
2022/03/20 00:59:46;;;;;;;22.40;15.23;;;4.10;1.00;;;;;;7362797;19;20021;-61
2022/03/20 01:02:16;;;;;;;27.40;17.02;;;4.00;1.00;;;;;;7357352;19;20193;-61
2022/03/20 01:04:46;;;;;;;25.30;15.10;;;4.00;1.00;;;;;;7358624;19;20464;-60
2022/03/20 01:07:17;;;;;;;21.80;14.82;;;4.10;1.00;;;;;;7383656;19;20070;-61
2022/03/20 01:09:53;;;;;;;27.60;16.13;;;4.10;1.00;;;;;;7361986;19;21197;-60
2022/03/20 01:12:23;;;;;;;25.85;15.30;;;4.10;1.00;;;;;;7358475;19;20003;-61
2022/03/20 01:14:53;;;;;;;23.65;15.15;;;4.10;1.00;;;;;;7366684;19;20010;-60
2022/03/20 01:17:24;;;;;;;25.80;15.27;;;4.10;1.00;;;;;;7366339;19;20546;-60
2022/03/20 01:19:53;;;;;;;36.35;16.35;;;4.10;1.00;;;;;;7368749;19;20015;-61
2022/03/20 01:22:23;;;;;;;29.92;16.95;;;4.10;1.00;;;;;;7383958;19;20018;-60
2022/03/20 01:24:56;;;;;;;23.98;15.13;;;4.10;1.00;;;;;;7365254;19;20021;-60
2022/03/20 01:27:26;;;;;;;26.23;15.57;;;4.10;1.00;;;;;;7366883;19;20090;-61
2022/03/20 01:29:55;;;;;;;23.08;14.65;;;4.10;1.00;;;;;;7369037;19;20011;-60
2022/03/20 01:32:26;;;;;;;25.63;14.45;;;4.10;1.00;;;;;;7361393;19;20011;-60
2022/03/20 01:34:56;;;;;;;23.58;14.73;;;4.10;1.00;;;;;;7364588;19;20015;-61
2022/03/20 01:37:26;;;;;;;23.13;14.52;;;4.10;1.00;;;;;;7387874;19;20765;-60
2022/03/20 01:39:59;;;;;;;24.70;16.38;;;4.00;1.00;;;;;;7368261;19;20006;-61
2022/03/20 01:42:28;;;;;;;25.67;15.40;;;3.90;1.00;;;;;;7360655;19;20082;-60
2022/03/20 01:45:14;;;;;;;26.48;15.35;;;3.80;1.00;;;;;;7365856;19;20487;-60
2022/03/20 01:47:47;;;;;;;24.02;15.98;;;3.70;1.00;;;;;;7366228;19;20040;-60
2022/03/20 01:50:18;;;;;;;24.48;15.30;;;3.70;1.00;;;;;;7368183;19;20002;-60
2022/03/20 01:52:48;;;;;;;25.45;15.68;;;3.60;1.00;;;;;;7360620;19;20020;-60
2022/03/20 01:55:22;;;;;;;27.65;16.17;;;3.70;1.00;;;;;;7385585;19;20029;-60
2022/03/20 01:57:54;;;;;;;24.67;14.65;;;3.80;1.00;;;;;;7367155;19;20019;-60
2022/03/20 02:00:25;;;;;;;22.10;15.18;;;3.70;1.00;;;;;;7367028;19;20043;-60
2022/03/20 02:02:55;;;;;;;25.13;15.73;;;3.70;1.00;;;;;;7361955;19;20470;-60
2022/03/20 02:05:26;;;;;;;23.00;14.48;;;3.70;1.00;;;;;;7365525;19;20455;-60
2022/03/20 02:07:56;;;;;;;24.67;15.23;;;4.00;1.00;;;;;;7366245;19;20043;-61
2022/03/20 02:10:35;;;;;;;23.13;15.63;;;4.10;1.00;;;;;;7390270;19;20494;-61
2022/03/20 02:13:06;;;;;;;26.52;16.33;;;4.10;1.00;;;;;;7359943;19;20006;-60
2022/03/20 02:15:37;;;;;;;25.48;14.65;;;3.90;1.00;;;;;;7366193;19;20018;-60
2022/03/20 02:18:10;;;;;;;29.27;17.25;;;3.80;1.00;;;;;;7366925;19;20006;-60
2022/03/20 02:20:40;;;;;;;24.85;15.70;;;3.90;1.00;;;;;;7363677;19;20386;-61
2022/03/20 02:23:12;;;;;;;26.45;16.10;;;3.90;1.00;;;;;;7360816;19;20472;-61
2022/03/20 02:25:50;;;;;;;24.35;14.75;;;4.00;1.00;;;;;;7365413;19;20035;-60
2022/03/20 02:28:21;;;;;;;24.63;14.82;;;4.10;1.00;;;;;;7388495;19;20023;-60
2022/03/20 02:30:51;;;;;;;24.52;15.02;;;4.20;1.00;;;;;;7362610;19;20591;-60
2022/03/20 02:33:23;;;;;;;24.90;15.63;;;4.20;1.00;;;;;;7359925;19;20783;-60
2022/03/20 02:35:54;;;;;;;25.35;16.05;;;4.30;1.00;;;;;;7366645;19;20020;-60
2022/03/20 02:38:27;;;;;;;24.60;15.75;;;4.30;1.00;;;;;;7365854;19;20011;-60
2022/03/20 02:40:59;;;;;;;25.02;15.90;;;4.20;1.00;;;;;;7363637;19;20010;-60
2022/03/20 02:43:29;;;;;;;28.02;15.63;;;4.20;1.00;;;;;;7367899;19;20014;-61
2022/03/20 02:46:02;;;;;;;25.35;15.63;;;4.20;1.00;;;;;;7388162;19;20026;-60
2022/03/20 02:48:32;;;;;;;24.25;15.48;;;4.20;1.00;;;;;;7365507;19;20022;-60
2022/03/20 02:51:02;;;;;;;25.20;14.90;;;4.30;1.00;;;;;;7362366;19;20044;-60
2022/03/20 02:53:36;;;;;;;27.13;16.23;;;4.20;1.00;;;;;;7359621;19;20006;-61
2022/03/20 02:56:07;;;;;;;26.15;16.42;;;4.10;1.00;;;;;;7366992;19;20031;-61
2022/03/20 02:58:37;;;;;;;25.83;15.43;;;4.10;1.00;;;;;;7366069;19;20031;-61
2022/03/20 03:01:07;;;;;;;22.58;15.20;;;4.20;1.00;;;;;;7383450;19;20031;-60
2022/03/20 03:03:39;;;;;;;28.10;16.42;;;4.20;1.00;;;;;;7358820;19;20074;-60
2022/03/20 03:06:10;;;;;;;29.75;16.00;;;4.20;1.00;;;;;;7365384;19;21210;-61
2022/03/20 03:11:25;;;;;;;27.02;15.82;;;4.20;1.00;;;;;;7361517;19;20018;-61
2022/03/20 03:13:55;;;;;;;25.45;15.38;;;4.30;1.00;;;;;;7358841;19;20011;-61
2022/03/20 03:16:22;;;;;;;27.33;16.98;;;4.30;1.00;;;;;;7386970;19;20021;-61
2022/03/20 03:18:52;;;;;;;24.10;15.57;;;4.30;1.00;;;;;;7365425;19;20021;-61
2022/03/20 03:21:21;;;;;;;26.40;15.55;;;4.30;1.00;;;;;;7361692;19;20060;-61
2022/03/20 03:23:55;;;;;;;24.30;15.55;;;4.30;1.00;;;;;;7360024;19;20010;-61
2022/03/20 03:26:25;;;;;;;26.33;16.35;;;4.30;1.00;;;;;;7364705;19;20926;-61
2022/03/20 03:28:55;;;;;;;28.08;15.77;;;4.30;1.00;;;;;;7365116;19;20014;-61
2022/03/20 03:31:25;;;;;;;25.02;15.48;;;4.30;1.00;;;;;;7383056;19;20020;-60
2022/03/20 03:36:40;;;;;;;26.58;15.60;;;4.30;1.00;;;;;;7363650;19;20014;-60
2022/03/20 03:39:13;;;;;;;26.88;15.55;;;4.30;1.00;;;;;;7366012;19;20462;-60
2022/03/20 03:41:43;;;;;;;25.58;15.95;;;4.30;1.00;;;;;;7362046;19;20010;-60
2022/03/20 03:44:12;;;;;;;27.58;15.82;;;4.30;1.00;;;;;;7358526;19;20015;-59
2022/03/20 03:46:42;;;;;;;26.98;16.13;;;4.30;1.00;;;;;;7364335;19;20019;-60
2022/03/20 03:49:12;;;;;;;27.15;16.13;;;4.30;1.00;;;;;;7385729;19;20022;-59
2022/03/20 03:51:42;;;;;;;29.45;16.00;;;4.40;1.00;;;;;;7360402;19;20010;-60
2022/03/20 03:54:14;;;;;;;26.23;15.95;;;4.40;1.00;;;;;;7356807;19;20399;-60
2022/03/20 03:56:45;;;;;;;26.20;16.15;;;4.40;1.00;;;;;;7362554;19;20070;-60
2022/03/20 03:59:15;;;;;;;27.48;16.35;;;4.50;1.00;;;;;;7363192;19;20089;-60
2022/03/20 04:01:45;;;;;;;26.10;16.15;;;4.50;1.00;;;;;;7361163;19;20078;-60
2022/03/20 04:04:15;;;;;;;28.15;15.85;;;4.60;1.00;;;;;;7378325;19;20027;-60
2022/03/20 04:06:45;;;;;;;29.63;16.38;;;4.70;1.00;;;;;;7362081;19;20017;-60
2022/03/20 04:09:18;;;;;;;26.55;16.27;;;4.70;1.00;;;;;;7363387;19;20110;-60
2022/03/20 04:11:48;;;;;;;26.63;16.13;;;4.80;1.00;;;;;;7359681;19;20360;-60
2022/03/20 04:14:18;;;;;;;28.80;16.27;;;4.80;1.00;;;;;;7356640;19;20010;-60
2022/03/20 04:16:48;;;;;;;29.55;16.90;;;4.80;1.00;;;;;;7363768;19;20111;-60
2022/03/20 04:19:17;;;;;;;31.92;17.35;;;4.80;1.00;;;;;;7385453;19;20078;-59
2022/03/20 04:21:48;;;;;;;26.73;16.15;;;4.90;1.00;;;;;;7359994;19;20014;-61
2022/03/20 04:24:20;;;;;;;28.52;16.95;;;4.90;1.00;;;;;;7356478;19;20010;-60
2022/03/20 04:26:50;;;;;;;28.00;16.80;;;4.80;1.00;;;;;;7363473;19;20019;-59
2022/03/20 04:29:21;;;;;;;27.65;16.58;;;4.90;1.00;;;;;;7362707;19;20499;-59
2022/03/20 04:31:53;;;;;;;29.70;17.35;;;4.90;1.00;;;;;;7360411;19;20168;-59
2022/03/20 04:34:24;;;;;;;28.45;17.13;;;4.80;1.00;;;;;;7377721;19;20018;-59
2022/03/20 04:36:56;;;;;;;28.98;17.75;;;4.80;1.00;;;;;;7363481;19;20615;-59
2022/03/20 04:39:29;;;;;;;29.85;18.17;;;4.80;1.00;;;;;;7363196;19;20035;-59
2022/03/20 04:41:58;;;;;;;27.27;17.50;;;4.70;1.00;;;;;;7359625;19;20042;-60
2022/03/20 04:44:29;;;;;;;29.42;17.02;;;4.70;1.00;;;;;;7355492;19;20006;-60
2022/03/20 04:46:59;;;;;;;31.17;18.23;;;4.80;1.00;;;;;;7364714;19;20017;-59
2022/03/20 05:00:22;;;;;;;28.30;17.20;;;4.70;1.00;;;;;;7368763;19;20020;-59
2022/03/20 05:02:52;;;;;;;27.17;17.30;;;4.70;1.00;;;;;;7362263;19;20090;-59
2022/03/20 05:05:22;;;;;;;31.15;17.92;;;4.70;1.00;;;;;;7365508;19;20131;-60
2022/03/20 05:07:52;;;;;;;30.92;17.60;;;4.70;1.00;;;;;;7368057;19;20010;-59
2022/03/20 05:13:22;;;;;;;31.77;17.60;;;4.70;1.00;;;;;;7362014;19;20498;-60
2022/03/20 05:15:52;;;;;;;29.02;18.10;;;4.70;1.00;;;;;;7366481;19;20471;-60
2022/03/20 05:18:22;;;;;;;31.10;18.20;;;4.70;1.00;;;;;;7368363;19;20530;-59
2022/03/20 05:20:52;;;;;;;28.73;18.05;;;4.70;1.00;;;;;;7365357;19;20534;-61
2022/03/20 05:23:23;;;;;;;28.45;17.63;;;4.70;1.00;;;;;;7362537;19;20511;-61
2022/03/20 05:25:55;;;;;;;30.60;18.48;;;4.60;1.00;;;;;;7366742;19;20483;-61
2022/03/20 05:28:25;;;;;;;29.55;17.40;;;4.60;1.00;;;;;;7389847;19;20078;-61
2022/03/20 05:30:55;;;;;;;32.58;17.48;;;4.50;1.00;;;;;;7366889;19;20073;-61
2022/03/20 05:33:25;;;;;;;34.75;19.13;;;4.50;1.00;;;;;;7361602;19;20370;-61
2022/03/20 05:35:55;;;;;;;31.00;17.60;;;4.50;1.00;;;;;;7367896;19;20022;-61
2022/03/20 05:38:26;;;;;;;28.00;17.73;;;4.50;1.00;;;;;;7367236;19;20081;-61
2022/03/20 05:43:40;;;;;;;32.70;18.27;;;4.60;1.00;;;;;;7361333;19;20006;-61
2022/03/20 05:46:11;;;;;;;28.73;18.48;;;4.70;1.00;;;;;;7391565;19;20070;-61
2022/03/20 05:48:41;;;;;;;31.48;18.98;;;4.70;1.00;;;;;;7367718;19;20014;-61
2022/03/20 05:51:15;;;;;;;28.45;17.60;;;4.80;1.00;;;;;;7366001;19;20077;-61
2022/03/20 05:53:45;;;;;;;30.43;17.70;;;4.90;1.00;;;;;;7361754;19;20455;-61
2022/03/20 05:58:59;;;;;;;;;;;4.90;1.00;;;;;;7367650;19;20078;-59
2022/03/20 06:01:29;;;;;;;31.98;18.98;;;4.90;1.00;;;;;;7370704;19;19915;-62
2022/03/20 06:04:00;;;;;;;29.33;17.85;;;5.00;1.00;;;;;;7382032;19;20502;-61
2022/03/20 06:06:30;;;;;;;32.28;19.27;;;5.00;1.00;;;;;;7367687;19;20477;-59
2022/03/20 06:09:00;;;;;;;31.23;17.88;;;5.10;1.00;;;;;;7366890;19;20013;-60
2022/03/20 06:11:34;;;;;;;30.73;18.85;;;5.20;1.00;;;;;;7364368;19;20510;-63
2022/03/20 06:14:04;;;;;;;34.83;18.65;;;5.40;1.00;;;;;;7361489;19;20085;-60
2022/03/20 06:16:34;;;;;;;30.08;18.92;;;5.40;1.00;;;;;;7365864;19;20011;-60
2022/03/20 06:19:07;;;;;;;34.63;19.08;;;5.50;1.00;;;;;;7388964;19;20495;-60
2022/03/20 06:21:38;;;;;;;29.40;17.92;;;5.60;1.00;;;;;;7363379;19;20081;-60
2022/03/20 06:24:08;;;;;;;34.75;20.15;;;5.70;1.00;;;;;;7359326;19;20018;-60
2022/03/20 06:26:40;;;;;;;31.15;19.73;;;5.80;1.00;;;;;;7366420;19;20015;-60
2022/03/20 06:29:10;;;;;;;30.40;19.23;;;6.00;1.00;;;;;;7366952;19;20284;-60
2022/03/20 06:31:41;;;;;;;32.83;18.85;;;6.10;1.00;;;;;;7363253;19;20020;-61
2022/03/20 06:34:12;;;;;;;30.65;18.65;;;6.30;1.00;;;;;;7380812;19;20121;-61
2022/03/20 06:36:42;;;;;;;30.92;19.88;;;6.40;1.00;;;;;;7362961;19;20474;-59
2022/03/20 06:39:13;;;;;;;31.48;19.42;;;6.60;1.00;;;;;;7365372;19;20010;-59
2022/03/20 06:41:46;;;;;;;30.95;19.45;;;6.70;1.00;;;;;;7362998;19;20039;-59
2022/03/20 06:44:16;;;;;;;32.08;19.50;;;6.70;1.00;;;;;;7359678;19;20020;-60
2022/03/20 06:46:46;;;;;;;31.02;19.48;;;6.70;1.00;;;;;;7365810;19;20014;-60
2022/03/20 06:49:17;;;;;;;34.50;20.88;;;6.80;1.00;;;;;;7386598;19;20010;-60
2022/03/20 06:51:46;;;;;;;33.00;20.60;;;6.90;1.00;;;;;;7362040;19;20006;-60
2022/03/20 06:54:16;;;;;;;30.77;19.05;;;7.00;1.00;;;;;;7356972;19;20090;-61
2022/03/20 06:56:49;;;;;;;32.75;20.67;;;6.90;1.00;;;;;;7363766;19;20024;-60
2022/03/20 06:59:19;;;;;;;29.17;19.33;;;7.10;1.00;;;;;;7365636;19;20508;-60
2022/03/20 07:01:49;;;;;;;30.17;19.92;;;7.20;1.00;;;;;;7362444;19;20812;-60
2022/03/20 07:04:20;;;;;;;32.80;19.40;;;7.20;1.00;;;;;;7381011;19;20081;-59
2022/03/20 07:06:50;;;;;;;30.58;18.92;;;7.30;1.00;;;;;;7365626;19;20090;-60
2022/03/20 07:09:20;;;;;;;35.28;21.60;;;7.30;1.00;;;;;;7360969;19;20099;-60
2022/03/20 07:11:52;;;;;;;32.00;20.30;;;7.40;1.00;;;;;;7363024;19;20081;-60
2022/03/20 07:14:25;;;;;;;29.77;20.00;;;7.20;1.00;;;;;;7359464;19;20013;-60
2022/03/20 07:16:55;;;;;;;33.05;20.25;;;7.40;1.00;;;;;;7364981;19;20483;-61
2022/03/20 07:19:25;;;;;;;33.47;20.45;;;7.40;1.00;;;;;;7384634;19;20037;-60
2022/03/20 07:21:57;;;;;;;35.38;20.67;;;7.30;1.00;;;;;;7361665;19;20018;-60
2022/03/20 07:24:26;;;;;;;32.63;20.13;;;7.40;1.00;;;;;;7357561;19;20086;-60
2022/03/20 07:29:42;;;;;;;33.28;20.58;;;7.60;1.00;;;;;;7364410;19;20018;-61
2022/03/20 07:32:11;;;;;;;33.13;20.70;;;7.80;1.00;;;;;;7361162;19;20466;-61
2022/03/20 07:34:44;;;;;;;33.55;20.77;;;7.70;1.00;;;;;;7358259;19;20089;-61
2022/03/20 07:37:16;;;;;;;33.28;20.10;;;7.70;1.00;;;;;;7385055;19;20006;-61
2022/03/20 07:39:48;;;;;;;31.52;19.77;;;7.80;1.00;;;;;;7363509;19;20135;-61
2022/03/20 07:42:23;;;;;;;33.25;20.48;;;7.90;1.00;;;;;;7359328;19;20018;-61
2022/03/20 07:44:53;;;;;;;32.45;21.10;;;8.00;1.00;;;;;;7360505;19;20362;-60
2022/03/20 07:47:24;;;;;;;38.80;20.98;;;8.10;1.00;;;;;;7362006;19;20010;-60
2022/03/20 07:49:54;;;;;;;32.38;20.83;;;8.20;1.00;;;;;;7362901;19;20085;-61
2022/03/20 07:52:24;;;;;;;32.65;21.05;;;8.30;1.00;;;;;;7379861;19;20023;-60
2022/03/20 07:54:54;;;;;;;34.95;21.27;;;8.40;1.00;;;;;;7358781;19;20010;-59
2022/03/20 07:57:26;;;;;;;34.80;22.25;;;8.50;1.00;;;;;;7361739;19;20178;-61
2022/03/20 07:59:56;;;;;;;30.90;20.90;;;8.50;1.00;;;;;;7362583;19;20030;-61
2022/03/20 08:02:26;;;;;;;31.70;20.40;;;8.50;1.00;;;;;;7357610;19;20016;-61
2022/03/20 08:04:57;;;;;;;34.15;21.88;;;8.60;1.00;;;;;;7359936;19;20042;-61
2022/03/20 08:07:27;;;;;;;29.25;20.17;;;8.80;1.00;;;;;;7385462;19;20089;-60
2022/03/20 08:09:57;;;;;;;29.55;19.95;;;9.00;1.00;;;;;;7362723;19;20114;-61
2022/03/20 08:12:29;;;;;;;31.08;21.10;;;9.00;1.00;;;;;;7357159;19;20006;-60
2022/03/20 08:15:03;;;;;;;32.80;21.73;;;9.20;1.00;;;;;;7360623;19;20081;-60
2022/03/20 08:17:32;;;;;;;31.17;19.27;;;9.20;1.00;;;;;;7361971;19;20110;-61
2022/03/20 08:20:06;;;;;;;32.85;22.58;;;9.30;1.00;;;;;;7362881;19;20089;-60
2022/03/20 08:22:37;;;;;;;32.40;20.35;;;9.70;1.00;;;;;;7357665;19;20078;-60
2022/03/20 08:25:08;;;;;;;37.78;21.45;;;9.80;1.00;;;;;;7380060;19;20538;-60
2022/03/20 08:27:47;;;;;;;32.17;21.10;;;10.00;1.00;;;;;;7363090;19;20010;-60
2022/03/20 08:30:18;;;;;;;34.20;22.10;;;10.00;1.00;;;;;;7362191;19;20014;-60
2022/03/20 08:32:49;;;;;;;33.88;21.60;;;10.00;1.00;;;;;;7356998;19;20034;-62
2022/03/20 08:35:20;;;;;;;30.42;20.67;;;10.00;1.00;;;;;;7357909;19;20013;-61
2022/03/20 08:37:55;;;;;;;33.83;21.88;;;10.20;1.00;;;;;;7361962;19;20024;-61
2022/03/20 08:40:27;;;;;;;29.42;21.27;;;10.10;1.00;;;;;;7383560;19;20018;-61
2022/03/20 08:43:00;;;;;;;30.42;21.10;;;10.20;1.00;;;;;;7357424;19;20037;-61
2022/03/20 08:45:33;;;;;;;33.67;21.88;;;10.20;1.00;;;;;;7360794;19;20573;-62
2022/03/20 08:48:03;;;;;;;32.45;21.30;;;10.50;1.00;;;;;;7361360;19;20011;-61
2022/03/20 08:50:33;;;;;;;31.45;20.67;;;10.40;1.00;;;;;;7359903;19;20045;-60
2022/03/20 08:53:03;;;;;;;30.52;20.85;;;10.40;1.00;;;;;;7356866;19;20444;-61
2022/03/20 08:55:34;;;;;;;31.98;21.83;;;10.60;1.00;;;;;;7359528;19;20011;-60
2022/03/20 08:58:06;;;;;;;33.22;21.45;;;10.50;1.00;;;;;;7382524;19;20082;-61
2022/03/20 09:00:37;;;;;;;33.72;21.88;;;10.60;1.00;;;;;;7358106;19;20536;-61
2022/03/20 09:03:10;;;;;;;31.70;21.35;;;10.70;1.00;;;;;;7355332;19;20055;-61
2022/03/20 09:05:40;;;;;;;34.35;21.45;;;10.80;1.00;;;;;;7360573;19;20649;-61
2022/03/20 09:08:10;;;;;;;30.55;20.60;;;10.90;1.00;;;;;;7363280;19;20007;-61
2022/03/20 09:10:41;;;;;;;31.70;20.77;;;10.90;1.00;;;;;;7359435;19;20018;-61
2022/03/20 09:13:15;;;;;;;32.20;21.02;;;11.10;1.00;;;;;;7378161;19;20483;-60
2022/03/20 09:18:58;;;;;;;33.72;22.05;;;11.30;1.00;;;;;;7360121;19;20485;-61
2022/03/20 09:21:18;;;;;;;33.45;22.08;;;11.30;1.00;;;;;;7357322;19;20023;-62
2022/03/20 09:23:49;;;;;;;31.33;20.98;;;11.20;1.00;;;;;;7353522;19;20024;-60
2022/03/20 09:26:19;;;;;;;33.60;21.30;;;11.40;1.00;;;;;;7361478;19;20480;-60
2022/03/20 09:28:51;;;;;;;32.25;21.42;;;11.50;1.00;;;;;;7362474;19;20099;-61
2022/03/20 09:31:22;;;;;;;30.75;20.83;;;11.50;1.00;;;;;;7379110;19;20025;-61
2022/03/20 09:33:53;;;;;;;34.17;21.90;;;11.40;1.00;;;;;;7359215;19;20490;-61
2022/03/20 09:36:22;;;;;;;33.35;21.20;;;11.60;1.00;;;;;;7367582;19;20744;-61
2022/03/20 09:38:53;;;;;;;36.90;21.52;;;11.80;1.00;;;;;;7366757;19;20011;-61
2022/03/20 09:41:30;;;;;;;36.42;21.98;;;11.90;1.00;;;;;;7365697;19;20603;-61
2022/03/20 09:44:07;;;;;;;32.72;20.70;;;12.10;1.00;;;;;;7359763;19;20014;-60
2022/03/20 09:46:37;;;;;;;31.63;20.80;;;12.30;1.00;;;;;;7368425;19;20461;-61
2022/03/20 09:49:09;;;;;;;30.95;20.98;;;12.50;1.00;;;;;;7389139;19;20011;-61
2022/03/20 09:51:40;;;;;;;31.90;20.55;;;12.40;1.00;;;;;;7362858;19;20700;-61
2022/03/20 09:54:13;;;;;;;33.65;21.33;;;12.40;1.00;;;;;;7360115;19;20011;-61
2022/03/20 09:56:43;;;;;;;34.33;20.83;;;12.70;1.00;;;;;;7367025;19;20036;-62
2022/03/20 09:59:15;;;;;;;31.35;20.80;;;13.00;1.00;;;;;;7367380;19;20006;-62
2022/03/20 10:01:45;;;;;;;32.15;19.23;;;13.10;1.00;;;;;;7363419;19;20867;-62
2022/03/20 10:04:18;;;;;;;30.77;20.60;;;13.40;1.00;;;;;;7381592;19;20011;-62
2022/03/20 10:06:48;;;;;;;31.33;20.42;;;13.20;1.00;;;;;;7367246;19;20010;-62
2022/03/20 10:09:18;;;;;;;35.55;22.27;;;13.10;1.00;;;;;;7367886;19;20021;-62
2022/03/20 10:11:53;;;;;;;30.98;21.10;;;13.30;1.00;;;;;;7363883;19;20014;-62
2022/03/20 10:14:27;;;;;;;27.50;20.20;;;13.50;1.00;;;;;;7359694;19;20617;-62
2022/03/20 10:16:58;;;;;;;28.90;20.05;;;14.10;1.00;;;;;;7365653;19;20010;-62
2022/03/20 10:19:32;;;;;;;29.63;20.65;;;14.20;1.00;;;;;;7386302;19;20018;-65
2022/03/20 10:22:06;;;;;;;29.00;21.27;;;14.40;1.00;;;;;;7383803;19;20047;-63
2022/03/20 10:24:37;;;;;;;32.50;20.92;;;14.10;1.00;;;;;;7357213;19;20723;-63
2022/03/20 10:27:13;;;;;;;28.65;19.00;;;14.20;1.00;;;;;;7366356;19;20086;-61
2022/03/20 10:29:57;;;;;;;30.38;20.83;;;14.00;1.00;;;;;;7365859;19;20010;-61
2022/03/20 10:32:27;;;;;;;33.90;20.77;;;14.20;1.00;;;;;;7360930;19;20086;-62
2022/03/20 10:34:59;;;;;;;28.65;20.45;;;14.50;1.00;;;;;;7359874;19;20014;-62
2022/03/20 10:37:46;;;;;;;27.95;17.85;;;14.50;1.00;;;;;;7372830;19;20018;-62
2022/03/20 10:40:18;;;;;;;24.95;16.90;;;14.50;1.00;;;;;;7388074;19;20077;-62
2022/03/20 10:43:09;;;;;;;26.80;17.38;;;14.30;1.00;;;;;;7359936;19;20010;-60
2022/03/20 10:46:00;;;;;;;27.13;17.45;;;14.00;1.00;;;;;;7360717;19;20018;-62
2022/03/20 10:48:36;;;;;;;24.65;17.63;;;14.20;1.00;;;;;;7364555;19;20581;-62
2022/03/20 10:51:08;;;;;;;27.90;18.23;;;14.20;1.00;;;;;;7364256;19;20586;-61
2022/03/20 10:53:53;;;;;;;27.42;18.42;;;14.40;1.00;;;;;;7357971;19;20048;-61
2022/03/20 10:56:23;;;;;;;24.88;17.58;;;14.50;1.00;;;;;;7365638;19;20011;-61
2022/03/20 10:58:54;;;;;;;28.88;17.02;;;14.50;1.00;;;;;;7364588;19;20086;-61
2022/03/20 11:01:39;;;;;;;30.58;17.55;;;14.60;1.00;;;;;;7384993;19;20418;-61
2022/03/20 11:04:11;;;;;;;29.17;18.33;;;14.60;1.00;;;;;;7357347;19;20011;-61
2022/03/20 11:06:43;;;;;;;29.55;16.65;;;14.60;1.00;;;;;;7364712;19;20093;-62
2022/03/20 11:09:14;;;;;;;25.52;17.77;;;14.20;1.00;;;;;;7362739;19;20025;-62
2022/03/20 11:11:47;;;;;;;27.80;17.52;;;14.30;1.00;;;;;;7362563;19;20593;-60
2022/03/20 11:14:18;;;;;;;26.55;17.40;;;14.20;1.00;;;;;;7356574;19;20007;-62
2022/03/20 11:16:53;;;;;;;29.30;17.60;;;14.70;1.00;;;;;;7364162;19;20026;-62
2022/03/20 11:19:28;;;;;;;25.80;17.23;;;14.80;1.00;;;;;;7384885;19;20493;-62
2022/03/20 11:22:03;;;;;;;25.05;17.00;;;14.60;1.00;;;;;;7361215;19;20093;-62
2022/03/20 11:24:34;;;;;;;28.42;17.10;;;14.80;1.00;;;;;;7357137;19;20077;-62
2022/03/20 11:27:05;;;;;;;26.25;17.50;;;14.90;1.00;;;;;;7364452;19;20624;-62
2022/03/20 11:29:42;;;;;;;23.30;15.70;;;15.20;1.00;;;;;;7364434;19;20010;-62
2022/03/20 11:32:16;;;;;;;26.98;16.80;;;15.20;1.00;;;;;;7361268;19;20003;-62
2022/03/20 11:34:47;;;;;;;26.17;16.23;;;15.30;1.00;;;;;;7360450;19;20011;-63
2022/03/20 11:37:18;;;;;;;20.88;15.35;;;15.30;1.00;;;;;;7382806;19;20019;-62
2022/03/20 11:40:12;;;;;;;29.02;15.75;;;15.00;1.00;;;;;;7360705;19;20014;-63
2022/03/20 11:42:43;;;;;;;21.83;15.10;;;15.00;1.00;;;;;;7352958;19;20022;-62
2022/03/20 11:45:20;;;;;;;24.70;15.10;;;15.10;1.00;;;;;;7357370;19;20021;-61
2022/03/20 11:47:54;;;;;;;23.83;15.25;;;15.00;1.00;;;;;;7360341;19;20010;-63
2022/03/20 11:50:25;;;;;;;25.55;16.20;;;14.80;1.00;;;;;;7364052;19;20002;-63
2022/03/20 11:53:00;;;;;;;26.48;16.92;;;14.90;1.00;;;;;;7356843;19;20090;-62
2022/03/20 11:55:36;;;;;;;25.83;16.98;;;15.00;1.00;;;;;;7379533;19;20022;-62
2022/03/20 11:58:11;;;;;;;28.42;17.00;;;14.70;1.00;;;;;;7360614;19;20022;-62
2022/03/20 12:00:51;;;;;;;26.45;17.00;;;14.70;1.00;;;;;;7359912;19;20006;-65
2022/03/20 12:03:49;;;;;;;29.25;17.77;;;14.90;1.00;;;;;;7353011;19;20078;-62
2022/03/20 12:06:39;;;;;;;26.17;16.77;;;15.00;1.00;;;;;;7360984;19;20478;-62
2022/03/20 12:09:44;;;;;;;25.45;16.50;;;15.20;1.00;;;;;;7363624;19;20014;-62
2022/03/20 12:12:32;;;;;;;27.45;16.58;;;15.00;1.00;;;;;;7358416;19;20016;-62
2022/03/20 12:15:10;;;;;;;28.50;16.83;;;15.40;1.00;;;;;;7357365;19;20018;-62
2022/03/20 12:18:00;;;;;;;27.48;17.58;;;15.40;1.00;;;;;;7363310;19;20540;-64
2022/03/20 12:20:59;;;;;;;28.08;17.42;;;15.20;1.00;;;;;;7361460;19;20007;-62
2022/03/20 12:23:44;;;;;;;29.60;18.63;;;15.50;1.00;;;;;;7355726;19;20548;-63
2022/03/20 12:26:34;;;;;;;29.15;17.58;;;15.30;1.00;;;;;;7361676;19;20694;-61
2022/03/20 12:29:28;;;;;;;29.58;17.70;;;15.00;1.00;;;;;;7362370;19;20017;-61
2022/03/20 12:32:00;;;;;;;25.85;17.77;;;15.00;1.00;;;;;;7357317;19;20017;-62
2022/03/20 12:34:31;;;;;;;28.75;17.05;;;14.70;1.00;;;;;;7375451;19;20022;-62
2022/03/20 12:37:31;;;;;;;25.33;17.15;;;15.20;1.00;;;;;;7361235;19;20090;-62
2022/03/20 12:40:11;;;;;;;26.92;17.02;;;15.40;1.00;;;;;;7360038;19;20056;-64
2022/03/20 12:43:07;;;;;;;25.88;16.50;;;15.20;1.00;;;;;;7356486;19;20014;-62
2022/03/20 12:45:39;;;;;;;24.23;16.52;;;15.30;1.00;;;;;;7360365;19;20566;-63
2022/03/20 12:48:11;;;;;;;26.67;16.90;;;15.50;1.00;;;;;;7360644;19;20022;-62
2022/03/20 12:50:43;;;;;;;25.13;16.83;;;15.50;1.00;;;;;;7359580;19;20011;-63
2022/03/20 12:53:15;;;;;;;25.38;17.42;;;15.40;1.00;;;;;;7355232;19;20074;-62
2022/03/20 12:55:57;;;;;;;24.65;16.50;;;15.50;1.00;;;;;;7359257;19;20134;-63
2022/03/20 12:58:28;;;;;;;25.80;17.35;;;15.70;1.00;;;;;;7381820;19;20019;-63
2022/03/20 13:00:58;;;;;;;29.55;17.60;;;15.60;1.00;;;;;;7358529;19;20070;-62
2022/03/20 13:03:33;;;;;;;32.05;18.52;;;15.70;1.00;;;;;;7353062;19;20007;-63
2022/03/20 13:06:04;;;;;;;29.88;17.35;;;15.50;1.00;;;;;;7359123;19;20014;-62
2022/03/20 13:08:36;;;;;;;27.75;16.27;;;15.50;1.00;;;;;;7365449;19;20015;-61
2022/03/20 13:11:48;;;;;;;23.30;15.07;;;15.80;1.00;;;;;;7367048;19;20419;-61
2022/03/20 13:14:04;;;;;;;27.73;14.68;;;15.90;1.00;;;;;;7360447;19;20014;-61
2022/03/20 13:16:35;;;;;;;20.42;13.70;;;16.00;1.00;;;;;;7389044;19;20013;-61
2022/03/20 13:19:05;;;;;;;22.98;13.98;;;16.10;1.00;;;;;;7367996;19;20015;-61
2022/03/20 13:21:35;;;;;;;22.88;12.88;;;16.20;1.00;;;;;;7364549;19;20017;-60
2022/03/20 13:24:06;;;;;;;22.10;12.57;;;16.20;1.00;;;;;;7360491;19;20089;-61
2022/03/20 13:26:38;;;;;;;23.67;13.52;;;15.90;1.00;;;;;;7367074;19;20037;-61
2022/03/20 13:29:08;;;;;;;21.27;13.95;;;16.00;1.00;;;;;;7366615;19;20095;-62
2022/03/20 13:31:38;;;;;;;20.10;13.50;;;15.90;1.00;;;;;;7363381;19;20092;-63
2022/03/20 13:34:08;;;;;;;20.58;13.77;;;15.90;1.00;;;;;;7383147;19;20018;-62
2022/03/20 13:36:41;;;;;;;22.15;14.40;;;16.10;1.00;;;;;;7367683;19;20010;-62
2022/03/20 13:39:13;;;;;;;20.67;13.63;;;16.00;1.00;;;;;;7366762;19;20085;-63
2022/03/20 13:41:46;;;;;;;20.38;13.20;;;16.10;1.00;;;;;;7365267;19;20078;-63